createdAt,value
2022-10-26T00:01:31.376Z,10.04
2022-10-26T00:03:59.807Z,10.02
2022-10-26T00:06:28.980Z,10.00
2022-10-26T00:08:57.674Z,9.99
2022-10-26T00:11:26.044Z,9.95
2022-10-26T00:13:54.383Z,9.93
2022-10-26T00:16:26.471Z,9.92
2022-10-26T00:18:54.883Z,9.91
2022-10-26T00:21:23.445Z,9.88
2022-10-26T00:23:51.733Z,9.86
2022-10-26T00:26:20.046Z,9.84
2022-10-26T00:28:49.110Z,9.83
2022-10-26T00:31:18.060Z,9.84
2022-10-26T00:33:46.541Z,9.83
2022-10-26T00:36:16.753Z,9.81
2022-10-26T00:38:53.340Z,9.79
2022-10-26T00:41:25.006Z,9.76
2022-10-26T00:43:54.457Z,9.74
2022-10-26T00:46:36.201Z,9.72
2022-10-26T00:51:52.346Z,9.68
2022-10-26T00:54:21.316Z,9.64
2022-10-26T00:56:51.967Z,9.63
2022-10-26T00:59:21.885Z,9.63
2022-10-26T01:01:51.615Z,9.61
2022-10-26T01:04:20.348Z,9.61
2022-10-26T01:06:49.840Z,9.61
2022-10-26T01:09:19.150Z,9.60
2022-10-26T01:11:53.868Z,9.60
2022-10-26T01:14:24.219Z,9.61
2022-10-26T01:17:37.483Z,9.61
2022-10-26T01:20:31.048Z,9.61
2022-10-26T01:23:05.361Z,9.59
2022-10-26T01:26:04.671Z,9.56
2022-10-26T01:29:03.669Z,9.56
2022-10-26T01:31:42.241Z,9.58
2022-10-26T01:34:22.455Z,9.56
2022-10-26T01:36:58.508Z,9.56
2022-10-26T01:39:39.281Z,9.56
2022-10-26T01:42:09.355Z,9.54
2022-10-26T01:44:49.471Z,9.55
2022-10-26T01:47:20.881Z,9.54
2022-10-26T01:49:56.681Z,9.54
2022-10-26T01:52:25.477Z,9.54
2022-10-26T01:55:20.466Z,9.54
2022-10-26T01:57:51.923Z,9.54
2022-10-26T02:00:20.347Z,9.53
2022-10-26T02:03:02.294Z,9.53
2022-10-26T02:05:47.682Z,9.52
2022-10-26T02:08:37.710Z,9.51
2022-10-26T02:11:15.014Z,9.52
2022-10-26T02:14:16.161Z,9.53
2022-10-26T02:16:56.340Z,9.52
2022-10-26T02:19:36.951Z,9.53
2022-10-26T02:22:28.943Z,9.52
2022-10-26T02:25:01.418Z,9.50
2022-10-26T02:27:35.119Z,9.51
2022-10-26T02:30:05.525Z,9.51
2022-10-26T02:32:37.725Z,9.50
2022-10-26T02:35:06.566Z,9.49
2022-10-26T02:37:36.601Z,9.50
2022-10-26T02:40:11.965Z,9.49
2022-10-26T02:42:45.180Z,9.48
2022-10-26T02:45:18.602Z,9.47
2022-10-26T02:47:47.666Z,9.45
2022-10-26T02:50:19.440Z,9.44
2022-10-26T02:52:54.144Z,9.44
2022-10-26T02:55:35.325Z,9.43
2022-10-26T02:58:09.267Z,9.41
2022-10-26T03:00:38.397Z,9.38
2022-10-26T03:03:06.727Z,9.34
2022-10-26T03:05:36.914Z,9.33
2022-10-26T03:08:05.515Z,9.33
2022-10-26T03:10:38.079Z,9.33
2022-10-26T03:13:06.354Z,9.31
2022-10-26T03:15:34.690Z,9.29
2022-10-26T03:18:02.988Z,9.27
2022-10-26T03:20:32.023Z,9.26
2022-10-26T03:23:00.705Z,9.23
2022-10-26T03:25:29.176Z,9.22
2022-10-26T03:27:59.235Z,9.21
2022-10-26T03:30:28.303Z,9.20
2022-10-26T03:32:57.073Z,9.17
2022-10-26T03:35:25.532Z,9.16
2022-10-26T03:37:53.898Z,9.14
2022-10-26T03:40:22.154Z,9.14
2022-10-26T03:42:50.947Z,9.12
2022-10-26T03:45:19.569Z,9.10
2022-10-26T03:47:49.473Z,9.07
2022-10-26T03:50:20.848Z,9.06
2022-10-26T03:52:49.502Z,9.04
2022-10-26T03:55:19.356Z,9.02
2022-10-26T03:57:47.794Z,8.99
2022-10-26T04:00:17.725Z,8.97
2022-10-26T04:02:53.719Z,8.94
2022-10-26T04:05:22.302Z,8.93
2022-10-26T04:07:58.321Z,8.93
2022-10-26T04:10:27.827Z,8.92
2022-10-26T04:12:56.514Z,8.92
2022-10-26T04:15:24.813Z,8.92
2022-10-26T04:17:58.542Z,8.94
2022-10-26T04:20:28.526Z,8.94
2022-10-26T04:23:05.225Z,8.96
2022-10-26T04:25:34.715Z,8.97
2022-10-26T04:28:05.343Z,8.96
2022-10-26T04:30:35.331Z,8.98
2022-10-26T04:33:04.730Z,8.97
2022-10-26T04:35:34.965Z,8.98
2022-10-26T04:38:05.906Z,8.99
2022-10-26T04:40:35.433Z,8.99
2022-10-26T04:43:03.764Z,9.01
2022-10-26T04:45:32.487Z,9.00
2022-10-26T04:48:10.257Z,9.00
2022-10-26T04:50:39.717Z,9.01
2022-10-26T04:53:09.635Z,9.01
2022-10-26T04:55:38.019Z,9.02
2022-10-26T04:58:08.136Z,9.06
2022-10-26T05:00:36.427Z,9.07
2022-10-26T05:03:08.043Z,9.10
2022-10-26T05:05:37.798Z,9.11
2022-10-26T05:08:06.768Z,9.12
2022-10-26T05:10:35.173Z,9.12
2022-10-26T05:13:03.515Z,9.11
2022-10-26T05:15:32.052Z,9.11
2022-10-26T05:18:03.519Z,9.10
2022-10-26T05:20:34.259Z,9.09
2022-10-26T05:23:03.569Z,9.08
2022-10-26T05:25:35.118Z,9.09
2022-10-26T05:28:06.339Z,9.08
2022-10-26T05:30:35.301Z,9.12
2022-10-26T05:33:03.851Z,9.13
2022-10-26T05:35:32.933Z,9.13
2022-10-26T05:38:07.332Z,9.14
2022-10-26T05:40:36.022Z,9.15
2022-10-26T05:43:04.826Z,9.16
2022-10-26T05:45:33.091Z,9.18
2022-10-26T05:48:02.787Z,9.21
2022-10-26T05:50:31.552Z,9.24
2022-10-26T05:53:00.519Z,9.27
2022-10-26T05:55:31.039Z,9.30
2022-10-26T05:58:01.271Z,9.33
2022-10-26T06:00:33.297Z,9.34
2022-10-26T06:03:04.418Z,9.37
2022-10-26T06:05:45.398Z,9.41
2022-10-26T06:08:13.914Z,9.42
2022-10-26T06:10:42.389Z,9.44
2022-10-26T06:13:10.992Z,9.47
2022-10-26T06:15:48.692Z,9.49
2022-10-26T06:18:35.272Z,9.50
2022-10-26T06:21:22.567Z,9.53
2022-10-26T06:24:00.111Z,9.53
2022-10-26T06:27:15.763Z,9.56
2022-10-26T06:29:49.946Z,9.56
2022-10-26T06:32:18.461Z,9.58
2022-10-26T06:34:49.734Z,9.58
2022-10-26T06:37:18.632Z,9.58
2022-10-26T06:39:53.927Z,9.59
2022-10-26T06:42:23.566Z,9.60
2022-10-26T06:44:52.746Z,9.62
2022-10-26T06:47:31.904Z,9.63
2022-10-26T06:50:28.192Z,9.67
2022-10-26T06:53:11.468Z,9.69
2022-10-26T06:55:45.511Z,9.71
2022-10-26T06:58:20.977Z,9.76
2022-10-26T07:00:52.247Z,9.81
2022-10-26T07:03:20.933Z,9.85
2022-10-26T07:05:49.895Z,9.88
2022-10-26T07:08:18.679Z,9.90
2022-10-26T07:10:53.009Z,9.97
2022-10-26T07:13:21.447Z,10.01
2022-10-26T07:15:49.753Z,10.06
2022-10-26T07:18:18.340Z,10.10
2022-10-26T07:20:46.769Z,10.14
2022-10-26T07:23:15.983Z,10.19
2022-10-26T07:25:44.223Z,10.24
2022-10-26T07:28:12.947Z,10.27
2022-10-26T07:30:41.380Z,10.32
2022-10-26T07:33:12.444Z,10.34
2022-10-26T07:35:41.280Z,10.37
2022-10-26T07:38:09.881Z,10.41
2022-10-26T07:40:38.260Z,10.43
2022-10-26T07:43:06.749Z,10.47
2022-10-26T07:45:36.755Z,10.48
2022-10-26T07:48:05.186Z,10.50
2022-10-26T07:50:34.914Z,10.53
2022-10-26T07:53:03.345Z,10.53
2022-10-26T07:55:31.568Z,10.56
2022-10-26T07:58:00.190Z,10.58
2022-10-26T08:00:29.998Z,10.61
2022-10-26T08:02:58.306Z,10.63
2022-10-26T08:05:26.844Z,10.67
2022-10-26T08:07:55.216Z,10.72
2022-10-26T08:10:23.963Z,10.76
2022-10-26T08:12:53.246Z,10.82
2022-10-26T08:15:21.585Z,10.87
2022-10-26T08:17:50.177Z,10.92
2022-10-26T08:20:18.994Z,10.97
2022-10-26T08:22:47.772Z,11.05
2022-10-26T08:25:18.945Z,11.11
2022-10-26T08:27:50.129Z,11.17
2022-10-26T08:30:18.705Z,11.24
2022-10-26T08:32:47.335Z,11.32
2022-10-26T08:35:16.050Z,11.42
2022-10-26T08:37:44.331Z,11.52
2022-10-26T08:40:17.023Z,11.59
2022-10-26T08:42:50.456Z,11.69
2022-10-26T08:45:36.843Z,11.77
2022-10-26T08:48:13.783Z,11.85
2022-10-26T08:50:49.601Z,11.90
2022-10-26T08:53:53.480Z,11.96
2022-10-26T08:56:47.285Z,12.05
2022-10-26T08:59:43.629Z,12.17
2022-10-26T09:02:17.075Z,12.25
2022-10-26T09:04:45.693Z,12.34
2022-10-26T09:07:29.247Z,12.44
2022-10-26T09:10:14.906Z,12.54
2022-10-26T09:13:03.356Z,12.62
2022-10-26T09:16:05.640Z,12.70
2022-10-26T09:18:43.073Z,12.75
2022-10-26T09:21:27.465Z,12.81
2022-10-26T09:24:03.908Z,12.84
2022-10-26T09:26:35.734Z,12.84
2022-10-26T09:29:11.142Z,12.87
2022-10-26T09:31:43.429Z,12.97
2022-10-26T09:34:23.126Z,13.07
2022-10-26T09:36:55.658Z,13.18
2022-10-26T09:39:43.378Z,13.29
2022-10-26T09:42:22.703Z,13.42
2022-10-26T09:45:13.302Z,13.58
2022-10-26T09:47:49.869Z,13.74
2022-10-26T09:50:26.435Z,13.92
2022-10-26T09:52:54.753Z,14.04
2022-10-26T09:55:23.864Z,14.12
2022-10-26T09:57:56.189Z,14.21
2022-10-26T10:00:26.219Z,14.32
2022-10-26T10:02:58.882Z,14.44
2022-10-26T10:05:50.324Z,14.58
2022-10-26T10:08:22.100Z,14.76
2022-10-26T10:11:05.783Z,14.92
2022-10-26T10:13:36.999Z,15.02
2022-10-26T10:16:22.137Z,15.14
2022-10-26T10:18:58.277Z,15.27
2022-10-26T10:21:48.580Z,15.42
2022-10-26T10:24:33.876Z,15.55
2022-10-26T10:27:18.460Z,15.63
2022-10-26T10:29:48.064Z,15.69
2022-10-26T10:32:28.628Z,15.73
2022-10-26T10:34:58.999Z,15.77
2022-10-26T10:37:46.070Z,15.78
2022-10-26T10:40:20.771Z,15.80
2022-10-26T10:42:55.558Z,15.83
2022-10-26T10:45:26.752Z,15.89
2022-10-26T10:48:13.367Z,15.91
2022-10-26T10:51:13.065Z,15.96
2022-10-26T10:53:51.781Z,16.01
2022-10-26T10:56:48.970Z,16.04
2022-10-26T10:59:38.927Z,16.01
2022-10-26T11:02:13.616Z,15.98
2022-10-26T11:05:03.405Z,15.92
2022-10-26T11:07:45.011Z,15.87
2022-10-26T11:10:17.841Z,15.86
2022-10-26T11:12:58.767Z,15.88
2022-10-26T11:15:32.140Z,15.87
2022-10-26T11:18:11.605Z,15.87
2022-10-26T11:20:47.821Z,15.89
2022-10-26T11:24:11.475Z,15.87
2022-10-26T11:26:46.355Z,15.87
2022-10-26T11:29:26.128Z,15.86
2022-10-26T11:32:01.684Z,15.87
2022-10-26T11:34:38.053Z,15.91
2022-10-26T11:40:12.271Z,16.00
2022-10-26T11:42:49.274Z,16.02
2022-10-26T11:45:23.575Z,16.07
2022-10-26T11:47:59.735Z,16.13
2022-10-26T11:50:36.696Z,16.22
2022-10-26T11:53:14.895Z,16.33
2022-10-26T11:55:55.782Z,16.41
2022-10-26T11:58:26.777Z,16.48
2022-10-26T12:00:57.991Z,16.54
2022-10-26T12:03:32.754Z,16.60
2022-10-26T12:06:01.453Z,16.64
2022-10-26T12:08:38.919Z,16.68
2022-10-26T12:11:22.313Z,16.73
2022-10-26T12:13:52.563Z,16.81
2022-10-26T12:16:43.214Z,16.89
2022-10-26T12:19:32.121Z,16.93
2022-10-26T12:22:01.027Z,16.98
2022-10-26T12:24:35.557Z,16.99
2022-10-26T12:27:06.459Z,17.03
2022-10-26T12:29:46.634Z,17.06
2022-10-26T12:32:33.613Z,17.06
2022-10-26T12:35:43.763Z,17.08
2022-10-26T12:38:24.258Z,17.08
2022-10-26T12:41:07.818Z,17.08
2022-10-26T12:43:39.997Z,17.11
2022-10-26T12:46:14.776Z,17.10
2022-10-26T12:48:50.812Z,17.08
2022-10-26T12:51:22.514Z,17.07
2022-10-26T12:54:35.872Z,17.07
2022-10-26T12:57:29.141Z,17.09
2022-10-26T13:00:14.876Z,17.08
2022-10-26T13:03:01.096Z,17.07
2022-10-26T13:06:04.114Z,17.04
2022-10-26T13:08:42.202Z,17.10
2022-10-26T13:11:21.276Z,17.19
2022-10-26T13:13:55.840Z,17.23
2022-10-26T13:16:27.083Z,17.24
2022-10-26T13:18:56.749Z,17.24
2022-10-26T13:21:26.216Z,17.25
2022-10-26T13:23:54.900Z,17.27
2022-10-26T13:26:28.601Z,17.28
2022-10-26T13:29:00.391Z,17.32
2022-10-26T13:31:28.983Z,17.33
2022-10-26T13:34:11.028Z,17.34
2022-10-26T13:37:13.404Z,17.33
2022-10-26T13:39:47.376Z,17.30
2022-10-26T13:42:21.859Z,17.30
2022-10-26T13:44:59.755Z,17.28
2022-10-26T13:47:49.776Z,17.25
2022-10-26T13:50:24.772Z,17.23
2022-10-26T13:53:05.779Z,17.22
2022-10-26T13:55:45.462Z,17.21
2022-10-26T13:58:35.031Z,17.20
2022-10-26T14:01:09.562Z,17.18
2022-10-26T14:03:39.012Z,17.13
2022-10-26T14:06:32.608Z,17.11
2022-10-26T14:09:05.072Z,17.11
2022-10-26T14:11:43.052Z,17.09
2022-10-26T14:14:18.625Z,17.06
2022-10-26T14:16:50.510Z,17.05
2022-10-26T14:19:29.125Z,17.03
2022-10-26T14:21:58.535Z,17.01
2022-10-26T14:24:47.004Z,17.02
2022-10-26T14:27:22.165Z,17.00
2022-10-26T14:32:41.213Z,16.93
2022-10-26T14:35:16.366Z,16.91
2022-10-26T14:37:47.253Z,16.87
2022-10-26T14:40:21.080Z,16.84
2022-10-26T14:42:52.881Z,16.82
2022-10-26T14:45:49.312Z,16.79
2022-10-26T14:48:21.336Z,16.75
2022-10-26T14:51:06.046Z,16.71
2022-10-26T14:53:40.182Z,16.70
2022-10-26T14:56:28.866Z,16.66
2022-10-26T14:58:58.770Z,16.60
2022-10-26T15:01:33.179Z,16.55
2022-10-26T15:04:06.777Z,16.46
2022-10-26T15:06:45.516Z,16.38
2022-10-26T15:09:33.036Z,16.29
2022-10-26T15:12:04.275Z,16.22
2022-10-26T15:14:34.125Z,16.15
2022-10-26T15:17:04.018Z,16.10
2022-10-26T15:19:40.229Z,16.04
2022-10-26T15:22:22.945Z,15.98
2022-10-26T15:24:58.064Z,15.91
2022-10-26T15:27:29.549Z,15.85
2022-10-26T15:30:24.552Z,15.81
2022-10-26T15:32:55.242Z,15.76
2022-10-26T15:35:32.069Z,15.75
2022-10-26T15:38:01.316Z,15.72
2022-10-26T15:40:31.595Z,15.72
2022-10-26T15:43:00.975Z,15.71
2022-10-26T15:45:36.145Z,15.70
2022-10-26T15:48:21.495Z,15.70
2022-10-26T15:50:50.453Z,15.68
2022-10-26T15:53:27.591Z,15.68
2022-10-26T15:55:59.415Z,15.66
2022-10-26T15:58:31.525Z,15.67
2022-10-26T16:01:00.041Z,15.65
2022-10-26T16:03:28.943Z,15.63
2022-10-26T16:06:01.043Z,15.60
2022-10-26T16:08:32.376Z,15.55
2022-10-26T16:11:01.589Z,15.50
2022-10-26T16:13:30.666Z,15.46
2022-10-26T16:15:58.934Z,15.38
2022-10-26T16:18:27.345Z,15.33
2022-10-26T16:20:55.918Z,15.29
2022-10-26T16:23:24.172Z,15.25
2022-10-26T16:25:52.450Z,15.20
2022-10-26T16:28:21.464Z,15.14
2022-10-26T16:30:49.730Z,15.10
2022-10-26T16:33:19.464Z,15.06
2022-10-26T16:35:57.144Z,15.04
2022-10-26T16:38:26.730Z,14.98
2022-10-26T16:41:21.109Z,14.94
2022-10-26T16:43:49.908Z,14.92
2022-10-26T16:46:20.612Z,14.90
2022-10-26T16:48:49.284Z,14.87
2022-10-26T16:51:23.491Z,14.85
2022-10-26T16:53:53.813Z,14.85
2022-10-26T16:56:25.204Z,14.84
2022-10-26T16:58:53.963Z,14.84
2022-10-26T17:01:22.733Z,14.81
2022-10-26T17:03:53.049Z,14.82
2022-10-26T17:06:21.612Z,14.84
2022-10-26T17:08:50.102Z,14.85
2022-10-26T17:11:20.507Z,14.87
2022-10-26T17:13:55.730Z,14.89
2022-10-26T17:16:24.948Z,14.91
2022-10-26T17:18:54.286Z,14.92
2022-10-26T17:21:37.315Z,14.93
2022-10-26T17:24:06.916Z,14.91
2022-10-26T17:26:35.684Z,14.91
2022-10-26T17:29:04.275Z,14.89
2022-10-26T17:31:33.266Z,14.85
2022-10-26T17:34:02.286Z,14.81
2022-10-26T17:36:31.670Z,14.79
2022-10-26T17:39:00.982Z,14.76
2022-10-26T17:41:29.449Z,14.72
2022-10-26T17:43:57.711Z,14.70
2022-10-26T17:46:26.864Z,14.66
2022-10-26T17:48:59.847Z,14.62
2022-10-26T17:51:29.909Z,14.58
2022-10-26T17:53:59.344Z,14.55
2022-10-26T17:56:30.686Z,14.53
2022-10-26T17:59:12.394Z,14.51
2022-10-26T18:01:41.226Z,14.48
2022-10-26T18:04:09.584Z,14.46
2022-10-26T18:06:37.826Z,14.42
2022-10-26T18:09:06.405Z,14.39
2022-10-26T18:11:34.712Z,14.37
2022-10-26T18:14:04.486Z,14.35
2022-10-26T18:16:34.869Z,14.31
2022-10-26T18:19:04.740Z,14.30
2022-10-26T18:21:37.489Z,14.29
2022-10-26T18:24:07.400Z,14.28
2022-10-26T18:26:36.251Z,14.26
2022-10-26T18:29:05.455Z,14.26
2022-10-26T18:31:37.153Z,14.24
2022-10-26T18:34:07.001Z,14.23
2022-10-26T18:39:07.337Z,14.20
2022-10-26T18:41:35.641Z,14.20
2022-10-26T18:44:04.227Z,14.21
2022-10-26T18:46:39.357Z,14.21
2022-10-26T18:49:09.480Z,14.19
2022-10-26T18:51:37.816Z,14.19
2022-10-26T18:54:06.135Z,14.20
2022-10-26T18:56:34.619Z,14.19
2022-10-26T18:59:03.017Z,14.19
2022-10-26T19:01:34.505Z,14.18
2022-10-26T19:04:07.490Z,14.18
2022-10-26T19:06:49.545Z,14.15
2022-10-26T19:09:19.198Z,14.16
2022-10-26T19:11:47.713Z,14.14
2022-10-26T19:14:16.068Z,14.14
2022-10-26T19:16:46.358Z,14.11
2022-10-26T19:19:17.014Z,14.11
2022-10-26T19:21:47.093Z,14.09
2022-10-26T19:24:19.362Z,14.07
2022-10-26T19:26:50.335Z,14.07
2022-10-26T19:29:19.218Z,14.07
2022-10-26T19:31:52.019Z,14.05
2022-10-26T19:34:20.607Z,14.03
2022-10-26T19:36:49.085Z,14.02
2022-10-26T19:39:18.113Z,14.01
2022-10-26T19:41:46.799Z,13.98
2022-10-26T19:44:20.706Z,13.97
2022-10-26T19:46:50.810Z,13.95
2022-10-26T19:49:20.894Z,13.93
2022-10-26T19:51:49.390Z,13.92
2022-10-26T19:54:17.894Z,13.91
2022-10-26T19:56:46.652Z,13.90
2022-10-26T19:59:15.114Z,13.87
2022-10-26T20:01:43.531Z,13.87
2022-10-26T20:04:12.047Z,13.85
2022-10-26T20:06:43.947Z,13.84
2022-10-26T20:09:13.682Z,13.83
2022-10-26T20:11:43.130Z,13.81
2022-10-26T20:14:13.725Z,13.79
2022-10-26T20:16:42.258Z,13.76
2022-10-26T20:19:11.200Z,13.76
2022-10-26T20:21:39.612Z,13.72
2022-10-26T20:24:12.318Z,13.71
2022-10-26T20:26:41.241Z,13.68
2022-10-26T20:29:10.114Z,13.65
2022-10-26T20:31:40.594Z,13.63
2022-10-26T20:34:09.114Z,13.61
2022-10-26T20:36:37.848Z,13.60
2022-10-26T20:39:06.417Z,13.59
2022-10-26T20:41:41.571Z,13.57
2022-10-26T20:44:18.890Z,13.55
2022-10-26T20:46:47.690Z,13.53
2022-10-26T20:49:16.741Z,13.52
2022-10-26T20:52:20.065Z,13.51
2022-10-26T20:55:04.096Z,13.50
2022-10-26T20:57:35.200Z,13.48
2022-10-26T21:00:10.926Z,13.49
2022-10-26T21:02:39.792Z,13.47
2022-10-26T21:05:08.235Z,13.45
2022-10-26T21:07:36.535Z,13.44
2022-10-26T21:10:06.222Z,13.43
2022-10-26T21:12:34.543Z,13.42
2022-10-26T21:15:02.903Z,13.42
2022-10-26T21:17:34.459Z,13.41
2022-10-26T21:20:03.096Z,13.37
2022-10-26T21:22:31.392Z,13.35
2022-10-26T21:24:59.681Z,13.33
2022-10-26T21:27:30.314Z,13.31
2022-10-26T21:29:59.377Z,13.29
2022-10-26T21:32:27.853Z,13.27
2022-10-26T21:34:56.194Z,13.25
2022-10-26T21:37:27.728Z,13.24
2022-10-26T21:39:56.854Z,13.23
2022-10-26T21:42:25.141Z,13.21
2022-10-26T21:44:53.365Z,13.20
2022-10-26T21:47:22.083Z,13.17
2022-10-26T21:49:50.371Z,13.14
2022-10-26T21:52:18.703Z,13.13
2022-10-26T21:54:47.050Z,13.10
2022-10-26T21:57:16.525Z,13.09
2022-10-26T21:59:45.808Z,13.06
2022-10-26T22:02:14.133Z,13.04
2022-10-26T22:04:42.468Z,13.02
2022-10-26T22:07:11.068Z,13.01
2022-10-26T22:09:49.497Z,12.99
2022-10-26T22:12:28.588Z,12.97
2022-10-26T22:14:56.816Z,12.95
2022-10-26T22:17:25.173Z,12.94
2022-10-26T22:19:53.415Z,12.93
2022-10-26T22:22:21.941Z,12.92
2022-10-26T22:24:51.338Z,12.87
2022-10-26T22:27:20.248Z,12.85
2022-10-26T22:29:49.748Z,12.83
2022-10-26T22:32:18.054Z,12.80
2022-10-26T22:35:00.256Z,12.79
2022-10-26T22:37:39.011Z,12.77
2022-10-26T22:40:08.212Z,12.77
2022-10-26T22:42:36.471Z,12.76
2022-10-26T22:45:05.458Z,12.75
2022-10-26T22:47:34.965Z,12.73
2022-10-26T22:50:03.602Z,12.73
2022-10-26T22:52:31.863Z,12.71
2022-10-26T22:55:00.434Z,12.69
2022-10-26T22:57:28.986Z,12.67
2022-10-26T22:59:58.278Z,12.65
2022-10-26T23:02:26.687Z,12.63
2022-10-26T23:04:55.111Z,12.61
2022-10-26T23:07:26.121Z,12.57
2022-10-26T23:09:54.524Z,12.55
2022-10-26T23:12:22.969Z,12.52
2022-10-26T23:14:51.229Z,12.48
2022-10-26T23:17:19.481Z,12.43
2022-10-26T23:19:48.218Z,12.40
2022-10-26T23:22:16.531Z,12.36
2022-10-26T23:24:44.857Z,12.33
2022-10-26T23:27:13.088Z,12.28
2022-10-26T23:29:41.453Z,12.25
2022-10-26T23:32:09.878Z,12.23
2022-10-26T23:34:38.489Z,12.19
2022-10-26T23:37:06.727Z,12.16
2022-10-26T23:39:35.118Z,12.16
2022-10-26T23:42:03.699Z,12.14
2022-10-26T23:44:32.373Z,12.14
2022-10-26T23:47:00.628Z,12.12
2022-10-26T23:49:28.873Z,12.11
2022-10-26T23:51:57.367Z,12.11
2022-10-26T23:54:26.760Z,12.08
2022-10-26T23:56:55.073Z,12.04
2022-10-26T23:59:23.357Z,12.01
